• Join FlightAware (Why Join?)
  • Login
  • US Flag 
01:41PM EDT


 

Airport Tracker/Info


-or-


 

Live Flight TrackerFlight Track Log ✈ N4927N ✈ 24-Jul-2013 ✈ 3GM - KMGY

Flight Track Log - Related Links

Times and Time Zones

All times are in EDT time to prevent confusion due to time zone crossing. See the N4927N flight status page for this flight to view local times or setup timezone preferences in your user account.

Time Position Orientation Groundspeed Altitude Reporting Facility
EDT Latitude Longitude Course Direction KTS MPH feet Rate Location/Type
03:20PM 42.9111 -86.1489 160° South 110 127 3,900  Level Chicago Center
03:21PM 42.8925 -86.1306 144° Southeast 91 105 4,700 660 Climbing Chicago Center
03:22PM 42.8733 -86.1142 148° Southeast 84 97 5,300 600 Climbing Chicago Center
03:23PM 42.8511 -86.1044 162° South 84 97 6,000 600 Climbing Chicago Center
03:24PM 42.8308 -86.0676 157° South  Level FlightAware Approximate
03:24PM 42.8247 -86.0883 156° South 86 99 6,600  Level Chicago Center
03:25PM 42.7970 -86.0485 160° South  Level FlightAware Approximate
03:25PM 42.8019 -86.0764 159° South 88 101 7,000  Level Chicago Center
03:26PM 42.7772 -86.0500 142° Southeast 105 121 7,000  Level Chicago Center
03:27PM 42.7456 -86.0258 151° Southeast 125 144 7,000  Level Chicago Center
03:28PM 42.7142 -86.0056 155° Southeast 126 145 7,000  Level Chicago Center
03:29PM 42.6842 -85.9822 150° Southeast 125 144 7,000  Level Chicago Center
03:30PM 42.6450 -85.9614 159° South 126 145 7,000  Level Chicago Center
03:31PM 42.6131 -85.9419 156° South 126 145 7,000 -60 Level Chicago Center
03:32PM 42.5819 -85.9225 155° Southeast 125 144 6,900  Descending Chicago Center
03:33PM 42.5500 -85.9053 158° South 125 144 7,000  Climbing Chicago Center
03:34PM 42.5178 -85.8878 158° South 124 143 7,000  Level Chicago Center
03:35PM 42.4869 -85.8669 154° Southeast 124 143 7,000  Level Chicago Center
03:36PM 42.4483 -85.8422 155° Southeast 127 146 7,000  Level Chicago Center
03:37PM 42.4186 -85.8203 151° Southeast 124 143 7,000  Level Chicago Center
03:38PM 42.3883 -85.7989 152° Southeast 123 142 7,000  Level Chicago Center
03:39PM 42.3556 -85.7819 159° South 126 145 7,000  Level Chicago Center
03:40PM 42.3203 -85.7736 170° South 128 147 7,000 -60 Level Chicago Center
03:41PM 42.2794 -85.7581 164° South 129 148 6,900  Descending Chicago Center
03:42PM 42.2500 -85.7436 160° South 128 147 7,000  Climbing Chicago Center
03:44PM 42.2181 -85.7239 155° Southeast 127 146 6,900  Descending Chicago Center
03:45PM 42.1806 -85.6978 153° Southeast 127 146 7,000  Climbing Chicago Center
03:46PM 42.1483 -85.6781 156° South 128 147 7,000 -60 Level Chicago Center
03:47PM 42.1178 -85.6544 150° Southeast 126 145 6,900  Descending Chicago Center
03:48PM 42.0908 -85.6289 145° Southeast 121 139 7,000  Climbing Chicago Center
03:49PM 42.0600 -85.6064 152° Southeast 124 143 7,000  Level Chicago Center
03:51PM 41.9806 -85.5842 168° South 130 150 7,000  Level Chicago Center
03:52PM 41.9494 -85.5592 149° Southeast 130 150 7,000  Level Chicago Center
03:53PM 41.9144 -85.5411 159° South 134 154 7,000  Level Chicago Center
03:54PM 41.8803 -85.5283 164° South 130 150 7,000  Level Chicago Center
03:55PM 41.8483 -85.5072 154° Southeast 128 147 7,100  Climbing Chicago Center
03:56PM 41.8117 -85.4742 146° Southeast 132 152 7,000 -60 Descending Chicago Center
03:57PM 41.7825 -85.4481 146° Southeast 128 147 7,000  Level Chicago Center
03:58PM 41.7503 -85.4258 153° Southeast 129 148 7,000  Level Chicago Center
03:59PM 41.7161 -85.4142 166° South 128 147 7,000 -60 Level Chicago Center
04:00PM 41.6808 -85.3997 163° South 131 151 6,900  Descending Chicago Center
04:01PM 41.6458 -85.3811 158° South 132 152 7,000  Climbing Chicago Center
04:02PM 41.6111 -85.3639 160° South 130 150 7,000  Level Chicago Center
04:03PM 41.5778 -85.3436 156° South 130 150 7,000  Level Chicago Center
04:04PM 41.5394 -85.3169 152° Southeast 129 148 7,100  Climbing Chicago Center
04:05PM 41.5094 -85.2917 148° Southeast 128 147 7,000 -120 Descending Chicago Center
04:06PM 41.4747 -85.2764 162° South 131 151 6,900 -60 Descending Chicago Center
04:07PM 41.4425 -85.2578 157° South 128 147 6,900  Level Chicago Center
04:08PM 41.4097 -85.2403 158° South 127 146 7,000  Climbing Chicago Center
04:09PM 41.3778 -85.2236 159° South 126 145 7,000  Level Chicago Center
04:10PM 41.3406 -85.1983 153° Southeast 125 144 7,000  Level Chicago Center
04:11PM 41.3089 -85.1767 153° Southeast 126 145 7,000  Level Chicago Center
04:12PM 41.2753 -85.1606 160° South 127 146 7,000 -60 Level Chicago Center
04:14PM 41.2433 -85.1400 154° Southeast 128 147 6,900  Descending Chicago Center
04:15PM 41.2108 -85.1203 155° Southeast 128 147 7,000  Climbing Chicago Center
04:16PM 41.1778 -85.1028 158° South 128 147 7,000 -60 Level Chicago Center
04:17PM 41.1439 -85.0686 143° Southeast 127 146 6,900  Descending Chicago Center
04:18PM 41.1139 -85.0436 148° Southeast 127 146 7,000  Climbing Chicago Center
04:19PM 41.0786 -85.0328 167° South 127 146 7,000  Level Chicago Center
04:20PM 41.0433 -85.0256 171° South 128 147 7,000  Level Chicago Center
04:21PM 41.0094 -85.0125 164° South 127 146 7,000  Level Chicago Center
04:22PM 40.9758 -84.9922 156° South 129 148 7,000  Level Chicago Center
04:23PM 40.9364 -84.9700 157° South 129 148 7,000  Level Chicago Center
04:24PM 40.9050 -84.9489 153° Southeast 127 146 7,000  Level Chicago Center
04:25PM 40.8719 -84.9319 159° South 128 147 7,000  Level Chicago Center
04:26PM 40.8397 -84.9128 156° South 127 146 7,000  Level Chicago Center
04:27PM 40.8103 -84.8878 147° Southeast 126 145 7,000  Level Chicago Center
04:28PM 40.7767 -84.8694 158° South 130 150 7,000  Level Chicago Center
04:29PM 40.7361 -84.8533 163° South 128 147 7,000  Level Chicago Center
04:30PM 40.7014 -84.8408 165° South 129 148 7,000  Level Chicago Center
04:31PM 40.6681 -84.8219 157° South 128 147 7,000  Level Chicago Center
04:32PM 40.6311 -84.7989 155° Southeast 131 151 7,000  Level Chicago Center
04:33PM 40.5994 -84.7819 158° South 127 146 7,100  Climbing Chicago Center
04:35PM 40.5556 -84.7633 162° South 131 151 7,000 -60 Descending Indianapolis Center
04:36PM 40.5181 -84.7403 155° Southeast 129 148 7,000  Level Indianapolis Center
04:37PM 40.4850 -84.7222 157° South 126 145 7,100  Climbing Indianapolis Center
04:38PM 40.4511 -84.7069 161° South 128 147 7,100  Level Indianapolis Center
04:39PM 40.4158 -84.6881 158° South 129 148 7,100 -60 Level Indianapolis Center
04:40PM 40.3803 -84.6675 156° South 132 152 7,000  Descending Indianapolis Center
04:41PM 40.3486 -84.6478 155° Southeast 127 146 7,100  Climbing Indianapolis Center
04:42PM 40.3217 -84.6264 149° Southeast 126 145 7,000 -60 Descending Indianapolis Center
04:43PM 40.2889 -84.5983 147° Southeast 130 150 7,000  Level Indianapolis Center
04:44PM 40.2567 -84.5839 161° South 129 148 7,000  Level Indianapolis Center
04:45PM 40.2225 -84.5694 162° South 129 148 7,000  Level Indianapolis Center
04:46PM 40.1883 -84.5550 162° South 126 145 7,100  Climbing Indianapolis Center
04:47PM 40.1528 -84.5319 154° Southeast 129 148 7,000 -60 Descending Indianapolis Center
04:48PM 40.1206 -84.5203 165° South 130 150 7,000  Level Indianapolis Center
04:49PM 40.0889 -84.5008 155° Southeast 128 147 7,000  Level Indianapolis Center
04:50PM 40.0444 -84.4742 155° Southeast 130 150 7,000 -180 Level Indianapolis Center
04:51PM 40.0106 -84.4514 153° Southeast 133 153 6,700 -360 Descending Indianapolis Center
04:52PM 39.9864 -84.4356 153° Southeast 138 159 6,400 -480 Descending Indianapolis Center
04:53PM 39.9492 -84.4289 172° South 137 158 5,900 -780 Descending Indianapolis Center
04:54PM 39.9144 -84.4389 192° South 140 161 5,000 -960 Descending Indianapolis Center
04:55PM 39.8753 -84.4508 193° South 144 166 4,100 -660 Descending Indianapolis Center
04:55PM 39.8603 -84.4536 188° South 141 162 4,000 -120 Descending Indianapolis Center
04:56PM 39.8392 -84.4553 183° South 127 146 4,000  Level Indianapolis Center
04:56PM 39.8275 -84.4461 149° Southeast 134 154 4,000 60 Level Indianapolis Center
04:57PM 39.8061 -84.4300 150° Southeast 117 135 4,100 60 Climbing Indianapolis Center
04:58PM 39.7806 -84.4117 151° Southeast 115 132 4,100  Level Indianapolis Center
04:58PM 39.7703 -84.4025 146° Southeast 121 139 4,100 -120 Level Indianapolis Center
04:59PM 39.7494 -84.3897 155° Southeast 118 136 4,000  Descending Indianapolis Center
05:00PM 39.7222 -84.3686 149° Southeast 124 143 4,100  Climbing Indianapolis Center
05:00PM 39.7072 -84.3528 141° Southeast 121 139 4,000 -480 Descending Indianapolis Center
05:01PM 39.6758 -84.3175 139° Southeast 126 145 3,400 -600 Descending Indianapolis Center
05:03PM 39.6468 -84.2852 139° Southeast  Level FlightAware Approximate
05:10PM 39.5890 -84.2249 142° Southeast  Level Estimated
05:11PM 39.5890 -84.2249 142° Southeast  Level Estimated
05:12PM 39.5890 -84.2249 142° Southeast  Level Estimated
05:13PM 39.5890 -84.2249 142° Southeast  Level Estimated